createdAt,value
2018-08-11T00:01:22.579Z,9.47
2018-08-11T00:03:51.114Z,8.30
2018-08-11T00:06:19.769Z,9.17
2018-08-11T00:08:48.279Z,8.37
2018-08-11T00:11:16.809Z,8.03
2018-08-11T00:13:45.357Z,9.10
2018-08-11T00:16:13.955Z,9.63
2018-08-11T00:18:42.513Z,8.57
2018-08-11T00:21:11.099Z,9.73
2018-08-11T00:23:39.601Z,9.23
2018-08-11T00:26:08.107Z,8.67
2018-08-11T00:28:36.666Z,7.73
2018-08-11T00:31:05.419Z,8.80
2018-08-11T00:33:33.898Z,7.07
2018-08-11T00:36:02.411Z,7.97
2018-08-11T00:38:30.960Z,7.60
2018-08-11T00:40:59.286Z,8.07
2018-08-11T00:43:27.567Z,8.00
2018-08-11T00:45:55.840Z,8.13
2018-08-11T00:48:24.126Z,8.70
2018-08-11T00:50:52.414Z,7.57
2018-08-11T00:53:20.690Z,7.10
2018-08-11T00:55:48.999Z,7.43
2018-08-11T00:58:17.274Z,7.40
2018-08-11T01:00:45.573Z,7.80
2018-08-11T01:03:13.882Z,8.73
2018-08-11T01:05:42.152Z,9.03
2018-08-11T01:08:10.434Z,8.30
2018-08-11T01:10:38.756Z,8.60
2018-08-11T01:13:07.039Z,8.50
2018-08-11T01:15:35.337Z,8.73
2018-08-11T01:18:04.131Z,6.20
2018-08-11T01:20:32.442Z,7.43
2018-08-11T01:23:00.736Z,7.70
2018-08-11T01:25:29.040Z,7.43
2018-08-11T01:27:57.312Z,7.17
2018-08-11T01:30:25.606Z,7.60
2018-08-11T01:32:53.947Z,7.43
2018-08-11T01:35:22.242Z,7.27
2018-08-11T01:37:50.562Z,7.13
2018-08-11T01:40:18.877Z,7.83
2018-08-11T01:42:48.198Z,7.47
2018-08-11T01:45:17.037Z,7.63
2018-08-11T01:47:45.370Z,5.77
2018-08-11T01:50:15.298Z,5.43
2018-08-11T01:52:45.851Z,5.10
2018-08-11T01:55:15.574Z,4.70
2018-08-11T01:57:43.936Z,5.17
2018-08-11T02:00:13.732Z,5.57
2018-08-11T02:02:42.126Z,5.60
2018-08-11T02:05:11.606Z,5.13
2018-08-11T02:07:41.290Z,4.97
2018-08-11T02:10:12.186Z,6.10
2018-08-11T02:12:40.501Z,6.03
2018-08-11T02:15:10.248Z,7.87
2018-08-11T02:17:38.516Z,7.37
2018-08-11T02:20:09.148Z,6.90
2018-08-11T02:22:37.422Z,7.63
2018-08-11T02:25:06.623Z,8.03
2018-08-11T02:27:34.942Z,7.77
2018-08-11T02:30:03.272Z,7.63
2018-08-11T02:32:31.596Z,7.13
2018-08-11T02:34:59.882Z,7.23
2018-08-11T02:37:28.170Z,7.53
2018-08-11T02:39:56.459Z,6.77
2018-08-11T02:42:24.729Z,7.00
2018-08-11T02:44:53.025Z,7.23
2018-08-11T02:47:21.305Z,6.57
2018-08-11T02:49:49.580Z,5.87
2018-08-11T02:52:17.914Z,6.87
2018-08-11T02:54:46.194Z,6.60
2018-08-11T02:57:14.460Z,7.17
2018-08-11T02:59:42.742Z,6.30
2018-08-11T03:02:11.026Z,5.77
2018-08-11T03:04:39.311Z,6.13
2018-08-11T03:07:07.593Z,6.53
2018-08-11T03:09:35.908Z,5.53
2018-08-11T03:12:04.216Z,5.83
2018-08-11T03:14:32.547Z,5.83
2018-08-11T03:17:00.813Z,6.27
2018-08-11T03:19:29.094Z,5.73
2018-08-11T03:21:57.364Z,5.17
2018-08-11T03:24:25.650Z,5.67
2018-08-11T03:26:53.963Z,6.03
2018-08-11T03:29:22.237Z,5.83
2018-08-11T03:31:50.511Z,5.73
2018-08-11T03:34:18.776Z,5.87
2018-08-11T03:36:47.052Z,5.07
2018-08-11T03:39:15.331Z,5.27
2018-08-11T03:41:43.617Z,5.23
2018-08-11T03:44:11.894Z,5.10
2018-08-11T03:46:40.218Z,5.53
2018-08-11T03:49:08.501Z,4.90
2018-08-11T03:51:36.777Z,5.20
2018-08-11T03:54:05.107Z,4.60
2018-08-11T03:56:33.435Z,4.83
2018-08-11T03:59:01.746Z,4.93
2018-08-11T04:01:30.072Z,4.57
2018-08-11T04:03:58.336Z,4.80
2018-08-11T04:06:26.607Z,4.77
2018-08-11T04:08:54.883Z,5.00
2018-08-11T04:11:23.165Z,5.07
2018-08-11T04:13:51.438Z,4.90
2018-08-11T04:16:19.754Z,4.77
2018-08-11T04:18:48.032Z,5.83
2018-08-11T04:21:16.360Z,5.17
2018-08-11T04:23:44.632Z,5.73
2018-08-11T04:26:12.914Z,5.10
2018-08-11T04:28:41.181Z,5.60
2018-08-11T04:31:09.465Z,6.43
2018-08-11T04:33:37.733Z,6.20
2018-08-11T04:36:06.010Z,5.47
2018-08-11T04:38:34.294Z,5.23
2018-08-11T04:41:02.616Z,5.17
2018-08-11T04:43:30.891Z,5.53
2018-08-11T04:45:59.169Z,6.07
2018-08-11T04:48:27.441Z,5.40
2018-08-11T04:50:55.741Z,5.30
2018-08-11T04:53:24.002Z,5.37
2018-08-11T04:55:52.275Z,5.57
2018-08-11T04:58:20.603Z,5.37
2018-08-11T05:00:48.937Z,4.87
2018-08-11T05:03:17.170Z,5.20
2018-08-11T05:05:45.470Z,5.93
2018-08-11T05:08:13.740Z,5.00
2018-08-11T05:10:42.017Z,4.77
2018-08-11T05:13:10.289Z,5.20
2018-08-11T05:15:38.558Z,5.30
2018-08-11T05:18:06.841Z,6.07
2018-08-11T05:20:35.119Z,6.87
2018-08-11T05:23:03.398Z,6.47
2018-08-11T05:25:31.685Z,6.00
2018-08-11T05:27:59.990Z,6.13
2018-08-11T05:30:28.303Z,6.07
2018-08-11T05:32:56.594Z,4.93
2018-08-11T05:35:24.907Z,5.10
2018-08-11T05:37:53.210Z,5.10
2018-08-11T05:40:21.500Z,5.70
2018-08-11T05:42:49.808Z,6.63
2018-08-11T05:45:18.087Z,5.07
2018-08-11T05:47:46.418Z,4.73
2018-08-11T05:50:14.688Z,5.00
2018-08-11T05:52:42.976Z,4.80
2018-08-11T05:55:11.293Z,4.40
2018-08-11T05:57:39.560Z,5.17
2018-08-11T06:00:09.166Z,4.73
2018-08-11T06:02:37.489Z,4.47
2018-08-11T06:05:06.394Z,4.67
2018-08-11T06:07:34.734Z,4.80
2018-08-11T06:10:03.198Z,4.77
2018-08-11T06:12:31.487Z,4.97
2018-08-11T06:14:59.757Z,4.80
2018-08-11T06:17:28.079Z,4.63
2018-08-11T06:19:56.366Z,5.67
2018-08-11T06:22:24.654Z,6.50
2018-08-11T06:24:52.971Z,6.00
2018-08-11T06:27:21.244Z,5.83
2018-08-11T06:29:49.573Z,5.13
2018-08-11T06:32:17.972Z,4.63
2018-08-11T06:34:46.126Z,4.90
2018-08-11T06:37:14.405Z,4.83
2018-08-11T06:39:42.710Z,4.40
2018-08-11T06:42:10.995Z,3.97
2018-08-11T06:44:39.256Z,3.73
2018-08-11T06:47:07.586Z,3.77
2018-08-11T06:49:35.802Z,3.30
2018-08-11T06:52:04.290Z,3.30
2018-08-11T06:54:32.781Z,3.30
2018-08-11T06:57:01.355Z,3.00
2018-08-11T06:59:29.863Z,3.43
2018-08-11T07:01:58.292Z,2.70
2018-08-11T07:04:26.753Z,2.80
2018-08-11T07:06:55.278Z,2.90
2018-08-11T07:09:30.521Z,2.13
2018-08-11T07:11:59.059Z,2.47
2018-08-11T07:14:27.566Z,2.20
2018-08-11T07:16:56.115Z,2.10
2018-08-11T07:19:24.740Z,2.10
2018-08-11T07:21:53.245Z,2.30
2018-08-11T07:24:21.816Z,2.10
2018-08-11T07:26:50.349Z,2.33
2018-08-11T07:29:18.880Z,1.80
2018-08-11T07:31:47.378Z,2.00
2018-08-11T07:34:15.962Z,1.80
2018-08-11T07:36:46.066Z,1.93
2018-08-11T07:39:14.556Z,2.30
2018-08-11T07:41:43.163Z,2.03
2018-08-11T07:44:11.722Z,2.03
2018-08-11T07:46:40.256Z,2.27
2018-08-11T07:49:08.939Z,2.07
2018-08-11T07:51:37.514Z,1.83
2018-08-11T07:54:06.060Z,2.10
2018-08-11T07:56:34.605Z,2.00
2018-08-11T07:59:03.173Z,2.17
2018-08-11T08:01:31.759Z,2.00
2018-08-11T08:04:00.254Z,1.80
2018-08-11T08:06:28.845Z,1.90
2018-08-11T08:08:57.395Z,1.77
2018-08-11T08:11:25.911Z,1.60
2018-08-11T08:13:54.517Z,1.87
2018-08-11T08:16:23.027Z,2.23
2018-08-11T08:18:51.595Z,2.10
2018-08-11T08:21:20.157Z,1.80
2018-08-11T08:23:48.688Z,2.10
2018-08-11T08:26:17.395Z,1.87
2018-08-11T08:28:45.743Z,2.10
2018-08-11T08:31:14.230Z,2.50
2018-08-11T08:33:42.720Z,2.50
2018-08-11T08:36:11.386Z,2.40
2018-08-11T08:38:39.883Z,2.13
2018-08-11T08:41:08.375Z,2.40
2018-08-11T08:43:36.909Z,2.57
2018-08-11T08:46:05.640Z,2.10
2018-08-11T08:48:34.220Z,2.10
2018-08-11T08:51:03.038Z,2.60
2018-08-11T08:53:31.510Z,2.63
2018-08-11T08:56:00.083Z,2.23
2018-08-11T08:58:28.659Z,2.63
2018-08-11T09:00:57.164Z,2.40
2018-08-11T09:03:25.748Z,2.30
2018-08-11T09:05:54.327Z,2.60
2018-08-11T09:08:22.922Z,2.70
2018-08-11T09:10:51.595Z,2.73
2018-08-11T09:13:20.070Z,2.67
2018-08-11T09:15:48.582Z,2.67
2018-08-11T09:18:17.119Z,2.80
2018-08-11T09:20:45.683Z,2.20
2018-08-11T09:23:14.210Z,2.10
2018-08-11T09:25:42.783Z,2.10
2018-08-11T09:28:11.229Z,1.67
2018-08-11T09:30:39.692Z,1.70
2018-08-11T09:33:08.198Z,1.80
2018-08-11T09:35:36.768Z,1.73
2018-08-11T09:38:05.319Z,1.40
2018-08-11T09:40:33.876Z,1.43
2018-08-11T09:43:02.481Z,1.47
2018-08-11T09:45:31.059Z,1.80
2018-08-11T09:47:59.637Z,1.30
2018-08-11T09:50:28.182Z,1.20
2018-08-11T09:52:56.669Z,1.40
2018-08-11T09:55:25.103Z,1.33
2018-08-11T09:57:53.588Z,1.43
2018-08-11T10:00:27.592Z,1.13
2018-08-11T10:02:56.162Z,1.60
2018-08-11T10:05:24.719Z,1.10
2018-08-11T10:07:53.297Z,1.57
2018-08-11T10:10:21.846Z,1.50
2018-08-11T10:12:50.385Z,1.30
2018-08-11T10:15:18.900Z,0.97
2018-08-11T10:17:47.465Z,1.40
2018-08-11T10:20:15.958Z,1.50
2018-08-11T10:22:44.647Z,1.40
2018-08-11T10:25:13.171Z,1.23
2018-08-11T10:27:41.637Z,1.50
2018-08-11T10:30:10.438Z,1.60
2018-08-11T10:32:38.963Z,1.40
2018-08-11T10:35:07.621Z,1.27
2018-08-11T10:37:36.211Z,1.13
2018-08-11T10:40:04.900Z,1.50
2018-08-11T10:42:33.510Z,1.17
2018-08-11T10:45:02.032Z,1.50
2018-08-11T10:47:30.544Z,1.20
2018-08-11T10:49:59.101Z,1.07
2018-08-11T10:52:27.663Z,1.40
2018-08-11T10:54:56.211Z,1.13
2018-08-11T10:57:24.762Z,1.10
2018-08-11T10:59:53.355Z,1.33
2018-08-11T11:02:21.869Z,1.30
2018-08-11T11:04:50.525Z,1.40
2018-08-11T11:07:21.605Z,1.40
2018-08-11T11:09:50.112Z,1.50
2018-08-11T11:12:18.648Z,1.40
2018-08-11T11:14:47.161Z,1.83
2018-08-11T11:17:15.715Z,1.50
2018-08-11T11:19:44.142Z,1.50
2018-08-11T11:22:12.618Z,1.47
2018-08-11T11:24:41.198Z,1.53
2018-08-11T11:27:09.745Z,1.60
2018-08-11T11:29:38.531Z,1.23
2018-08-11T11:32:07.074Z,1.53
2018-08-11T11:34:35.583Z,1.07
2018-08-11T11:37:04.277Z,1.70
2018-08-11T11:39:32.905Z,1.70
2018-08-11T11:42:01.459Z,1.90
2018-08-11T11:44:29.948Z,1.70
2018-08-11T11:46:58.510Z,1.40
2018-08-11T11:49:26.975Z,1.60
2018-08-11T11:51:55.546Z,1.73
2018-08-11T11:54:24.065Z,1.60
2018-08-11T11:56:52.604Z,1.40
2018-08-11T11:59:21.029Z,1.60
2018-08-11T12:01:49.534Z,1.73
2018-08-11T12:04:18.046Z,1.30
2018-08-11T12:06:46.568Z,1.50
2018-08-11T12:09:15.089Z,1.20
2018-08-11T12:11:43.470Z,1.17
2018-08-11T12:14:12.046Z,1.20
2018-08-11T12:16:40.442Z,1.03
2018-08-11T12:19:08.995Z,1.40
2018-08-11T12:21:37.491Z,1.20
2018-08-11T12:24:06.621Z,1.40
2018-08-11T12:26:35.188Z,1.40
2018-08-11T12:29:03.757Z,1.30
2018-08-11T12:31:32.350Z,1.20
2018-08-11T12:34:00.942Z,1.00
2018-08-11T12:36:29.568Z,1.10
2018-08-11T12:38:58.301Z,1.37
2018-08-11T12:41:33.310Z,1.23
2018-08-11T12:44:02.073Z,1.20
2018-08-11T12:46:30.931Z,0.90
2018-08-11T12:48:59.685Z,1.10
2018-08-11T12:51:28.809Z,1.50
2018-08-11T12:53:57.607Z,1.20
2018-08-11T12:56:26.322Z,0.80
2018-08-11T12:58:54.992Z,0.87
2018-08-11T13:01:24.124Z,0.90
2018-08-11T13:06:32.110Z,1.00
2018-08-11T13:09:00.554Z,1.10
2018-08-11T13:11:29.028Z,1.03
2018-08-11T13:13:57.664Z,1.27
2018-08-11T13:16:26.447Z,1.20
2018-08-11T13:18:55.129Z,0.97
2018-08-11T13:21:23.745Z,0.90
2018-08-11T13:23:52.652Z,1.20
2018-08-11T13:26:22.607Z,0.80
2018-08-11T13:28:52.012Z,1.07
2018-08-11T13:31:21.127Z,0.90
2018-08-11T13:33:51.187Z,1.10
2018-08-11T13:36:20.292Z,0.90
2018-08-11T13:38:48.992Z,1.17
2018-08-11T13:41:17.993Z,1.10
2018-08-11T13:43:46.841Z,1.00
2018-08-11T13:46:15.801Z,0.77
2018-08-11T13:48:44.277Z,0.73
2018-08-11T13:51:13.025Z,0.83
2018-08-11T13:53:41.580Z,1.13
2018-08-11T13:56:10.030Z,1.10
2018-08-11T13:58:38.440Z,1.03
2018-08-11T14:01:06.908Z,0.87
2018-08-11T14:03:35.368Z,0.80
2018-08-11T14:06:03.853Z,0.57
2018-08-11T14:08:32.268Z,0.90
2018-08-11T14:11:00.648Z,0.60
2018-08-11T14:13:30.239Z,0.67
2018-08-11T14:15:58.509Z,0.70
2018-08-11T14:18:26.789Z,0.57
2018-08-11T14:20:55.086Z,0.63
2018-08-11T14:23:23.384Z,0.70
2018-08-11T14:25:51.755Z,0.80
2018-08-11T14:28:20.683Z,0.80
2018-08-11T14:30:48.989Z,0.80
2018-08-11T14:33:17.272Z,0.80
2018-08-11T14:35:45.554Z,0.50
2018-08-11T14:38:13.838Z,0.90
2018-08-11T14:40:42.113Z,0.83
2018-08-11T14:43:10.409Z,0.60
2018-08-11T14:45:38.723Z,0.70
2018-08-11T14:48:07.095Z,0.80
2018-08-11T14:50:35.331Z,0.70
2018-08-11T14:53:03.674Z,0.73
2018-08-11T14:55:31.960Z,0.70
2018-08-11T14:58:00.493Z,0.70
2018-08-11T15:00:28.777Z,0.50
2018-08-11T15:02:57.120Z,0.90
2018-08-11T15:05:25.409Z,1.07
2018-08-11T15:07:53.698Z,0.77
2018-08-11T15:10:21.969Z,1.03
2018-08-11T15:12:50.277Z,0.90
2018-08-11T15:15:18.596Z,0.80
2018-08-11T15:17:46.884Z,0.70
2018-08-11T15:20:15.189Z,0.93
2018-08-11T15:22:43.624Z,1.00
2018-08-11T15:25:11.961Z,1.20
2018-08-11T15:27:40.512Z,0.80
2018-08-11T15:30:10.884Z,0.60
2018-08-11T15:32:39.238Z,0.70
2018-08-11T15:35:08.532Z,0.70
2018-08-11T15:37:36.832Z,0.70
2018-08-11T15:40:05.634Z,1.40
2018-08-11T15:42:34.024Z,1.03
2018-08-11T15:45:02.560Z,0.63
2018-08-11T15:47:30.898Z,0.87
2018-08-11T15:49:59.418Z,0.90
2018-08-11T15:52:27.707Z,1.30
2018-08-11T15:54:56.043Z,1.00
2018-08-11T15:57:24.313Z,0.83
2018-08-11T15:59:52.610Z,1.00
2018-08-11T16:02:20.931Z,0.67
2018-08-11T16:04:49.297Z,1.03
2018-08-11T16:07:17.674Z,1.00
2018-08-11T16:09:45.941Z,0.90
2018-08-11T16:12:14.245Z,1.00
2018-08-11T16:14:42.534Z,0.93
2018-08-11T16:17:10.816Z,1.70
2018-08-11T16:19:39.130Z,1.70
2018-08-11T16:22:07.426Z,2.10
2018-08-11T16:24:35.721Z,1.40
2018-08-11T16:27:04.101Z,0.70
2018-08-11T16:29:32.569Z,1.10
2018-08-11T16:32:00.836Z,1.17
2018-08-11T16:34:29.125Z,1.10
2018-08-11T16:36:57.424Z,1.00
2018-08-11T16:39:26.686Z,1.17
2018-08-11T16:41:54.986Z,0.90
2018-08-11T16:44:23.269Z,0.87
2018-08-11T16:46:51.548Z,0.80
2018-08-11T16:49:19.868Z,1.23
2018-08-11T16:51:48.185Z,0.83
2018-08-11T16:54:16.472Z,1.03
2018-08-11T16:56:44.756Z,1.00
2018-08-11T16:59:13.042Z,0.70
2018-08-11T17:01:41.395Z,0.80
2018-08-11T17:04:09.817Z,0.80
2018-08-11T17:06:38.192Z,0.77
2018-08-11T17:09:08.858Z,0.77
2018-08-11T17:11:37.174Z,1.00
2018-08-11T17:14:06.219Z,0.80
2018-08-11T17:16:34.516Z,0.60
2018-08-11T17:19:02.833Z,0.80
2018-08-11T17:21:31.151Z,1.10
2018-08-11T17:23:59.796Z,0.77
2018-08-11T17:26:28.091Z,0.60
2018-08-11T17:28:56.407Z,0.60
2018-08-11T17:31:24.693Z,0.87
2018-08-11T17:33:52.950Z,0.90
2018-08-11T17:36:21.241Z,0.90
2018-08-11T17:38:49.654Z,0.83
2018-08-11T17:41:17.883Z,0.70
2018-08-11T17:43:46.201Z,0.93
2018-08-11T17:46:14.509Z,0.77
2018-08-11T17:48:42.785Z,0.97
2018-08-11T17:51:11.153Z,1.23
2018-08-11T17:53:39.432Z,1.00
2018-08-11T17:56:07.737Z,0.50
2018-08-11T17:58:36.040Z,1.10
2018-08-11T18:01:04.334Z,0.90
2018-08-11T18:03:32.606Z,1.07
2018-08-11T18:06:00.925Z,0.70
2018-08-11T18:08:29.217Z,0.67
2018-08-11T18:10:57.551Z,0.70
2018-08-11T18:13:25.833Z,0.93
2018-08-11T18:15:54.109Z,0.80
2018-08-11T18:18:24.591Z,0.73
2018-08-11T18:20:52.920Z,0.90
2018-08-11T18:23:21.211Z,1.23
2018-08-11T18:25:49.497Z,1.30
2018-08-11T18:28:17.813Z,1.00
2018-08-11T18:30:46.085Z,1.00
2018-08-11T18:33:14.379Z,1.20
2018-08-11T18:35:42.727Z,0.70
2018-08-11T18:38:11.176Z,0.73
2018-08-11T18:40:39.457Z,1.03
2018-08-11T18:43:07.753Z,0.80
2018-08-11T18:45:36.037Z,0.90
2018-08-11T18:48:04.515Z,0.83
2018-08-11T18:50:32.835Z,0.90
2018-08-11T18:53:01.149Z,1.13
2018-08-11T18:55:29.494Z,0.90
2018-08-11T18:57:57.975Z,0.77
2018-08-11T19:00:26.265Z,1.00
2018-08-11T19:02:54.580Z,1.00
2018-08-11T19:05:22.873Z,0.80
2018-08-11T19:07:51.165Z,0.87
2018-08-11T19:10:19.496Z,0.90
2018-08-11T19:12:47.779Z,1.13
2018-08-11T19:15:16.054Z,1.10
2018-08-11T19:17:44.361Z,1.13
2018-08-11T19:20:13.780Z,1.03
2018-08-11T19:22:42.153Z,1.80
2018-08-11T19:25:11.455Z,1.90
2018-08-11T19:27:39.965Z,1.93
2018-08-11T19:30:09.813Z,1.77
2018-08-11T19:32:38.692Z,1.33
2018-08-11T19:35:07.082Z,1.37
2018-08-11T19:37:35.810Z,1.70
2018-08-11T19:40:05.514Z,1.40
2018-08-11T19:42:33.801Z,1.20
2018-08-11T19:45:02.317Z,1.20
2018-08-11T19:47:30.663Z,1.07
2018-08-11T19:49:59.012Z,1.43
2018-08-11T19:52:27.333Z,1.10
2018-08-11T19:54:55.646Z,1.00
2018-08-11T19:57:23.942Z,1.10
2018-08-11T19:59:52.217Z,1.03
2018-08-11T20:02:20.514Z,1.80
2018-08-11T20:04:48.802Z,1.97
2018-08-11T20:07:17.347Z,2.80
2018-08-11T20:09:45.604Z,2.60
2018-08-11T20:12:13.938Z,2.30
2018-08-11T20:14:42.237Z,1.97
2018-08-11T20:17:10.529Z,1.93
2018-08-11T20:19:38.830Z,1.90
2018-08-11T20:22:12.391Z,1.50
2018-08-11T20:24:40.720Z,1.60
2018-08-11T20:27:09.105Z,1.40
2018-08-11T20:29:38.718Z,1.50
2018-08-11T20:32:07.009Z,1.40
2018-08-11T20:34:35.321Z,1.70
2018-08-11T20:37:03.658Z,1.70
2018-08-11T20:39:31.966Z,1.70
2018-08-11T20:42:00.275Z,1.27
2018-08-11T20:44:28.615Z,1.27
2018-08-11T20:46:56.925Z,1.13
2018-08-11T20:49:25.205Z,1.37
2018-08-11T20:51:53.535Z,1.33
2018-08-11T20:54:21.877Z,1.33
2018-08-11T20:56:50.219Z,1.60
2018-08-11T20:59:18.514Z,2.00
2018-08-11T21:01:47.080Z,2.20
2018-08-11T21:04:15.364Z,1.90
2018-08-11T21:06:43.826Z,1.83
2018-08-11T21:09:13.253Z,1.90
2018-08-11T21:11:41.761Z,1.70
2018-08-11T21:14:10.740Z,1.60
2018-08-11T21:16:39.116Z,1.60
2018-08-11T21:19:07.453Z,1.83
2018-08-11T21:21:35.914Z,1.63
2018-08-11T21:24:04.323Z,2.47
2018-08-11T21:26:32.693Z,3.10
2018-08-11T21:29:01.003Z,2.50
2018-08-11T21:31:29.396Z,2.50
2018-08-11T21:33:57.697Z,1.40
2018-08-11T21:36:25.980Z,1.60
2018-08-11T21:38:54.337Z,1.77
2018-08-11T21:41:22.722Z,1.67
2018-08-11T21:43:51.008Z,1.60
2018-08-11T21:46:19.280Z,1.83
2018-08-11T21:48:47.600Z,1.60
2018-08-11T21:51:15.905Z,1.40
2018-08-11T21:53:44.214Z,1.73
2018-08-11T21:56:12.527Z,1.57
2018-08-11T21:58:40.804Z,1.73
2018-08-11T22:01:13.629Z,1.60
2018-08-11T22:03:42.839Z,1.53
2018-08-11T22:06:11.844Z,1.70
2018-08-11T22:08:40.486Z,1.60
2018-08-11T22:11:08.845Z,2.10
2018-08-11T22:13:37.142Z,1.87
2018-08-11T22:16:06.274Z,2.20
2018-08-11T22:18:34.960Z,2.10
2018-08-11T22:21:03.261Z,2.20
2018-08-11T22:23:31.570Z,2.53
2018-08-11T22:25:59.857Z,2.37
2018-08-11T22:28:28.175Z,2.40
2018-08-11T22:30:56.490Z,2.27
2018-08-11T22:33:24.845Z,2.37
2018-08-11T22:35:53.232Z,2.10
2018-08-11T22:38:21.597Z,2.67
2018-08-11T22:40:49.923Z,2.37
2018-08-11T22:43:18.288Z,2.67
2018-08-11T22:45:46.600Z,2.57
2018-08-11T22:48:14.916Z,2.73
2018-08-11T22:50:43.200Z,2.70
2018-08-11T22:53:11.482Z,2.90
2018-08-11T22:55:39.759Z,2.60
2018-08-11T22:58:08.049Z,2.57
2018-08-11T23:00:36.317Z,2.70
2018-08-11T23:03:05.824Z,2.60
2018-08-11T23:05:34.161Z,2.70
2018-08-11T23:08:02.514Z,3.43
2018-08-11T23:10:30.780Z,2.40
2018-08-11T23:12:59.098Z,3.33
2018-08-11T23:15:27.400Z,2.93
2018-08-11T23:17:55.680Z,3.50
2018-08-11T23:20:25.003Z,2.97
2018-08-11T23:22:53.356Z,3.10
2018-08-11T23:25:21.686Z,2.70
2018-08-11T23:27:50.549Z,2.43
2018-08-11T23:30:18.846Z,2.10
2018-08-11T23:32:47.152Z,2.57
2018-08-11T23:35:15.579Z,3.23
2018-08-11T23:37:44.123Z,2.87
2018-08-11T23:40:12.519Z,2.50
2018-08-11T23:42:40.934Z,2.57
2018-08-11T23:45:11.534Z,2.43
2018-08-11T23:47:40.300Z,3.03
2018-08-11T23:50:09.339Z,2.60
2018-08-11T23:52:37.839Z,2.80
2018-08-11T23:55:06.777Z,2.50
2018-08-11T23:57:35.281Z,2.30
